sensor_id;sensor_type;location;lat;lon;timestamp;P1;durP1;ratioP1;P2;durP2;ratioP2
38557;SDS011;24333;42.626;23.308;2022-08-04T02:10:27;7.85;;;4.53;;
38557;SDS011;24333;42.626;23.308;2022-08-04T02:36:40;7.43;;;4.43;;
38557;SDS011;24333;42.626;23.308;2022-08-04T02:39:11;5.20;;;3.65;;
38557;SDS011;24333;42.626;23.308;2022-08-04T02:41:38;4.72;;;4.10;;
38557;SDS011;24333;42.626;23.308;2022-08-04T02:44:09;6.57;;;4.20;;
38557;SDS011;24333;42.626;23.308;2022-08-04T02:49:26;8.00;;;4.13;;
38557;SDS011;24333;42.626;23.308;2022-08-04T02:51:56;8.63;;;4.55;;
38557;SDS011;24333;42.626;23.308;2022-08-04T02:54:34;6.43;;;3.78;;
38557;SDS011;24333;42.626;23.308;2022-08-04T06:08:33;16.83;;;9.93;;
38557;SDS011;24333;42.626;23.308;2022-08-04T06:11:16;17.80;;;9.93;;
38557;SDS011;24333;42.626;23.308;2022-08-04T06:14:23;19.88;;;10.68;;
38557;SDS011;24333;42.626;23.308;2022-08-04T06:16:49;28.48;;;11.95;;
38557;SDS011;24333;42.626;23.308;2022-08-04T06:19:19;30.55;;;11.98;;
38557;SDS011;24333;42.626;23.308;2022-08-04T06:21:48;27.25;;;10.60;;
38557;SDS011;24333;42.626;23.308;2022-08-04T06:24:18;15.20;;;11.00;;
38557;SDS011;24333;42.626;23.308;2022-08-04T06:26:48;22.40;;;12.90;;
38557;SDS011;24333;42.626;23.308;2022-08-04T06:29:33;19.55;;;12.10;;
38557;SDS011;24333;42.626;23.308;2022-08-04T06:32:09;18.85;;;13.60;;
38557;SDS011;24333;42.626;23.308;2022-08-04T07:35:23;26.67;;;13.75;;
38557;SDS011;24333;42.626;23.308;2022-08-04T07:37:51;23.35;;;13.63;;
38557;SDS011;24333;42.626;23.308;2022-08-04T07:40:19;21.73;;;14.07;;
38557;SDS011;24333;42.626;23.308;2022-08-04T07:42:45;21.73;;;13.63;;
38557;SDS011;24333;42.626;23.308;2022-08-04T07:45:12;21.58;;;11.88;;
38557;SDS011;24333;42.626;23.308;2022-08-04T07:47:45;24.23;;;13.57;;
38557;SDS011;24333;42.626;23.308;2022-08-04T07:50:11;26.67;;;13.52;;
38557;SDS011;24333;42.626;23.308;2022-08-04T07:52:38;26.00;;;13.98;;
38557;SDS011;24333;42.626;23.308;2022-08-04T07:55:04;25.30;;;12.20;;
38557;SDS011;24333;42.626;23.308;2022-08-04T08:22:09;21.42;;;10.13;;
38557;SDS011;24333;42.626;23.308;2022-08-04T08:24:35;21.80;;;10.93;;
38557;SDS011;24333;42.626;23.308;2022-08-04T08:27:01;29.08;;;10.70;;
38557;SDS011;24333;42.626;23.308;2022-08-04T08:32:03;19.15;;;11.50;;
38557;SDS011;24333;42.626;23.308;2022-08-04T08:34:32;19.50;;;10.68;;
38557;SDS011;24333;42.626;23.308;2022-08-04T08:37:25;19.80;;;10.30;;
38557;SDS011;24333;42.626;23.308;2022-08-04T08:48:54;19.63;;;8.55;;
38557;SDS011;24333;42.626;23.308;2022-08-04T09:01:05;12.15;;;5.60;;
38557;SDS011;24333;42.626;23.308;2022-08-04T09:09:03;9.20;;;5.10;;
38557;SDS011;24333;42.626;23.308;2022-08-04T09:11:37;9.32;;;5.63;;
38557;SDS011;24333;42.626;23.308;2022-08-04T09:17:12;12.15;;;4.75;;
38557;SDS011;24333;42.626;23.308;2022-08-04T09:19:51;10.55;;;5.13;;
38557;SDS011;24333;42.626;23.308;2022-08-04T09:22:26;10.10;;;4.93;;
38557;SDS011;24333;42.626;23.308;2022-08-04T09:27:49;12.82;;;4.70;;
38557;SDS011;24333;42.626;23.308;2022-08-04T09:30:17;8.65;;;4.28;;
38557;SDS011;24333;42.626;23.308;2022-08-04T09:55:31;7.18;;;2.78;;
38557;SDS011;24333;42.626;23.308;2022-08-04T09:58:45;13.00;;;3.28;;
38557;SDS011;24333;42.626;23.308;2022-08-04T10:01:04;3.67;;;2.40;;
38557;SDS011;24333;42.626;23.308;2022-08-04T10:03:34;4.60;;;2.72;;
38557;SDS011;24333;42.626;23.308;2022-08-04T10:11:22;4.53;;;3.10;;
38557;SDS011;24333;42.626;23.308;2022-08-04T10:14:04;5.10;;;2.60;;
38557;SDS011;24333;42.626;23.308;2022-08-04T10:16:46;10.25;;;2.92;;
38557;SDS011;24333;42.626;23.308;2022-08-04T10:21:53;8.25;;;3.03;;
38557;SDS011;24333;42.626;23.308;2022-08-04T10:27:02;3.65;;;2.28;;
38557;SDS011;24333;42.626;23.308;2022-08-04T10:29:43;9.07;;;2.83;;
38557;SDS011;24333;42.626;23.308;2022-08-04T10:32:13;8.65;;;2.90;;
38557;SDS011;24333;42.626;23.308;2022-08-04T10:34:47;7.15;;;3.20;;
38557;SDS011;24333;42.626;23.308;2022-08-04T10:37:23;6.90;;;3.03;;
38557;SDS011;24333;42.626;23.308;2022-08-04T10:39:54;8.25;;;3.70;;
38557;SDS011;24333;42.626;23.308;2022-08-04T10:42:45;7.60;;;3.08;;
38557;SDS011;24333;42.626;23.308;2022-08-04T10:45:22;6.32;;;3.60;;
38557;SDS011;24333;42.626;23.308;2022-08-04T10:48:04;3.08;;;2.67;;
38557;SDS011;24333;42.626;23.308;2022-08-04T10:50:33;15.23;;;3.10;;
38557;SDS011;24333;42.626;23.308;2022-08-04T10:53:11;8.77;;;2.75;;
38557;SDS011;24333;42.626;23.308;2022-08-04T10:55:41;5.25;;;3.08;;
38557;SDS011;24333;42.626;23.308;2022-08-04T10:58:24;7.68;;;2.60;;
38557;SDS011;24333;42.626;23.308;2022-08-04T11:00:55;3.28;;;2.60;;
38557;SDS011;24333;42.626;23.308;2022-08-04T11:03:33;4.38;;;2.25;;
38557;SDS011;24333;42.626;23.308;2022-08-04T11:06:04;4.63;;;2.40;;
38557;SDS011;24333;42.626;23.308;2022-08-04T11:08:44;3.85;;;2.60;;
38557;SDS011;24333;42.626;23.308;2022-08-04T11:13:55;6.15;;;2.85;;
38557;SDS011;24333;42.626;23.308;2022-08-04T11:16:38;7.10;;;2.40;;
38557;SDS011;24333;42.626;23.308;2022-08-04T11:22:09;5.07;;;2.60;;
38557;SDS011;24333;42.626;23.308;2022-08-04T11:30:11;4.72;;;2.60;;
38557;SDS011;24333;42.626;23.308;2022-08-04T11:35:46;3.65;;;2.45;;
38557;SDS011;24333;42.626;23.308;2022-08-04T11:41:32;8.25;;;2.63;;
38557;SDS011;24333;42.626;23.308;2022-08-04T11:44:40;4.78;;;2.80;;
38557;SDS011;24333;42.626;23.308;2022-08-04T11:47:28;5.22;;;3.00;;
38557;SDS011;24333;42.626;23.308;2022-08-04T11:50:01;5.43;;;2.78;;
38557;SDS011;24333;42.626;23.308;2022-08-04T11:52:31;15.98;;;3.47;;
38557;SDS011;24333;42.626;23.308;2022-08-04T12:00:44;5.45;;;3.30;;
38557;SDS011;24333;42.626;23.308;2022-08-04T12:03:45;6.30;;;2.92;;
38557;SDS011;24333;42.626;23.308;2022-08-04T12:06:38;5.00;;;2.90;;
38557;SDS011;24333;42.626;23.308;2022-08-04T12:09:20;13.23;;;8.10;;
38557;SDS011;24333;42.626;23.308;2022-08-04T12:14:29;9.30;;;4.45;;
38557;SDS011;24333;42.626;23.308;2022-08-04T12:17:05;8.07;;;4.28;;
38557;SDS011;24333;42.626;23.308;2022-08-04T12:19:39;4.78;;;2.92;;
38557;SDS011;24333;42.626;23.308;2022-08-04T12:22:14;6.38;;;3.10;;
38557;SDS011;24333;42.626;23.308;2022-08-04T12:24:45;5.78;;;3.30;;
38557;SDS011;24333;42.626;23.308;2022-08-04T12:30:22;7.32;;;2.80;;
38557;SDS011;24333;42.626;23.308;2022-08-04T12:32:56;6.05;;;2.78;;
38557;SDS011;24333;42.626;23.308;2022-08-04T12:35:37;6.00;;;2.70;;
38557;SDS011;24333;42.626;23.308;2022-08-04T12:38:11;4.00;;;2.67;;
38557;SDS011;24333;42.626;23.308;2022-08-04T12:40:48;4.68;;;3.22;;
38557;SDS011;24333;42.626;23.308;2022-08-04T12:58:46;4.32;;;2.80;;
38557;SDS011;24333;42.626;23.308;2022-08-04T13:01:17;6.05;;;3.03;;
38557;SDS011;24333;42.626;23.308;2022-08-04T13:06:14;5.95;;;2.80;;
38557;SDS011;24333;42.626;23.308;2022-08-04T13:08:41;9.70;;;2.83;;
38557;SDS011;24333;42.626;23.308;2022-08-04T13:11:09;4.20;;;3.05;;
38557;SDS011;24333;42.626;23.308;2022-08-04T13:13:40;3.88;;;2.97;;
38557;SDS011;24333;42.626;23.308;2022-08-04T13:16:08;6.65;;;3.28;;
38557;SDS011;24333;42.626;23.308;2022-08-04T13:18:53;5.55;;;3.08;;
38557;SDS011;24333;42.626;23.308;2022-08-04T13:21:21;4.05;;;3.00;;
38557;SDS011;24333;42.626;23.308;2022-08-04T13:34:33;5.68;;;3.00;;
38557;SDS011;24333;42.626;23.308;2022-08-04T13:37:00;4.75;;;2.88;;
38557;SDS011;24333;42.626;23.308;2022-08-04T13:42:04;6.10;;;3.13;;
38557;SDS011;24333;42.626;23.308;2022-08-04T13:44:36;4.28;;;2.90;;
38557;SDS011;24333;42.626;23.308;2022-08-04T13:47:07;5.03;;;3.00;;
38557;SDS011;24333;42.626;23.308;2022-08-04T13:49:36;5.32;;;3.13;;
38557;SDS011;24333;42.626;23.308;2022-08-04T13:52:08;5.97;;;2.92;;
38557;SDS011;24333;42.626;23.308;2022-08-04T13:54:40;5.60;;;2.53;;
38557;SDS011;24333;42.626;23.308;2022-08-04T14:12:52;7.45;;;3.17;;
38557;SDS011;24333;42.626;23.308;2022-08-04T14:18:15;3.28;;;2.97;;
38557;SDS011;24333;42.626;23.308;2022-08-04T14:21:04;3.20;;;2.78;;
38557;SDS011;24333;42.626;23.308;2022-08-04T14:42:38;3.20;;;2.90;;
38557;SDS011;24333;42.626;23.308;2022-08-04T14:45:04;3.33;;;2.85;;
38557;SDS011;24333;42.626;23.308;2022-08-04T14:48:05;4.30;;;2.80;;
38557;SDS011;24333;42.626;23.308;2022-08-04T16:09:25;9.73;;;7.00;;
38557;SDS011;24333;42.626;23.308;2022-08-04T16:11:53;9.80;;;5.80;;
38557;SDS011;24333;42.626;23.308;2022-08-04T16:14:28;14.95;;;7.90;;
38557;SDS011;24333;42.626;23.308;2022-08-04T16:16:55;11.88;;;6.82;;
38557;SDS011;24333;42.626;23.308;2022-08-04T16:19:51;8.75;;;6.20;;
38557;SDS011;24333;42.626;23.308;2022-08-04T16:25:16;6.00;;;5.00;;
38557;SDS011;24333;42.626;23.308;2022-08-04T16:31:02;11.82;;;5.15;;
38557;SDS011;24333;42.626;23.308;2022-08-04T16:33:32;6.90;;;5.18;;
38557;SDS011;24333;42.626;23.308;2022-08-04T16:35:58;5.85;;;4.63;;
38557;SDS011;24333;42.626;23.308;2022-08-04T16:38:25;6.55;;;4.97;;
38557;SDS011;24333;42.626;23.308;2022-08-04T17:09:18;12.80;;;7.10;;
38557;SDS011;24333;42.626;23.308;2022-08-04T17:11:45;11.68;;;6.25;;
38557;SDS011;24333;42.626;23.308;2022-08-04T17:14:11;10.02;;;6.45;;
38557;SDS011;24333;42.626;23.308;2022-08-04T17:16:39;11.07;;;6.28;;
38557;SDS011;24333;42.626;23.308;2022-08-04T17:19:06;6.78;;;4.55;;
38557;SDS011;24333;42.626;23.308;2022-08-04T17:21:34;7.10;;;4.60;;
38557;SDS011;24333;42.626;23.308;2022-08-04T17:24:01;7.40;;;5.05;;
38557;SDS011;24333;42.626;23.308;2022-08-04T17:26:35;7.18;;;4.68;;
38557;SDS011;24333;42.626;23.308;2022-08-04T17:29:02;8.82;;;4.07;;
38557;SDS011;24333;42.626;23.308;2022-08-04T17:31:29;8.88;;;4.28;;
38557;SDS011;24333;42.626;23.308;2022-08-04T17:33:57;8.88;;;4.25;;
38557;SDS011;24333;42.626;23.308;2022-08-04T17:36:25;11.05;;;4.35;;
38557;SDS011;24333;42.626;23.308;2022-08-04T17:38:56;9.10;;;3.83;;
38557;SDS011;24333;42.626;23.308;2022-08-04T18:08:27;5.40;;;4.25;;
38557;SDS011;24333;42.626;23.308;2022-08-04T18:10:53;8.35;;;5.47;;
38557;SDS011;24333;42.626;23.308;2022-08-04T18:13:20;10.98;;;5.40;;
38557;SDS011;24333;42.626;23.308;2022-08-04T18:15:48;7.35;;;4.90;;
38557;SDS011;24333;42.626;23.308;2022-08-04T18:18:19;8.70;;;5.18;;
38557;SDS011;24333;42.626;23.308;2022-08-04T18:20:46;8.75;;;5.03;;
38557;SDS011;24333;42.626;23.308;2022-08-04T18:23:12;7.03;;;4.85;;
38557;SDS011;24333;42.626;23.308;2022-08-04T18:25:43;9.98;;;4.75;;
38557;SDS011;24333;42.626;23.308;2022-08-04T18:28:12;7.75;;;4.38;;
38557;SDS011;24333;42.626;23.308;2022-08-04T18:30:38;7.38;;;4.50;;
38557;SDS011;24333;42.626;23.308;2022-08-04T18:33:04;6.00;;;4.70;;
38557;SDS011;24333;42.626;23.308;2022-08-04T18:35:32;10.55;;;4.55;;
38557;SDS011;24333;42.626;23.308;2022-08-04T18:38:02;7.60;;;4.97;;
38557;SDS011;24333;42.626;23.308;2022-08-04T18:40:28;7.15;;;4.20;;
38557;SDS011;24333;42.626;23.308;2022-08-04T18:42:53;6.47;;;4.90;;
38557;SDS011;24333;42.626;23.308;2022-08-04T19:03:25;4.25;;;3.55;;
38557;SDS011;24333;42.626;23.308;2022-08-04T19:05:51;8.68;;;3.85;;
38557;SDS011;24333;42.626;23.308;2022-08-04T19:08:17;7.13;;;3.83;;
38557;SDS011;24333;42.626;23.308;2022-08-04T19:10:43;7.13;;;3.55;;
38557;SDS011;24333;42.626;23.308;2022-08-04T19:13:09;5.45;;;3.83;;
38557;SDS011;24333;42.626;23.308;2022-08-04T19:31:06;6.15;;;4.07;;
38557;SDS011;24333;42.626;23.308;2022-08-04T19:33:34;9.35;;;4.03;;
38557;SDS011;24333;42.626;23.308;2022-08-04T19:36:02;8.27;;;3.80;;
38557;SDS011;24333;42.626;23.308;2022-08-04T19:38:28;4.97;;;3.50;;
38557;SDS011;24333;42.626;23.308;2022-08-04T19:41:05;4.35;;;3.38;;
38557;SDS011;24333;42.626;23.308;2022-08-04T19:43:32;6.88;;;3.90;;
38557;SDS011;24333;42.626;23.308;2022-08-04T19:45:58;5.53;;;3.65;;
38557;SDS011;24333;42.626;23.308;2022-08-04T19:48:24;5.63;;;4.10;;
38557;SDS011;24333;42.626;23.308;2022-08-04T19:50:51;5.68;;;3.40;;
38557;SDS011;24333;42.626;23.308;2022-08-04T19:53:17;9.10;;;3.50;;
38557;SDS011;24333;42.626;23.308;2022-08-04T19:55:44;6.65;;;3.88;;
38557;SDS011;24333;42.626;23.308;2022-08-04T19:58:10;8.10;;;3.65;;
38557;SDS011;24333;42.626;23.308;2022-08-04T20:00:47;4.97;;;3.70;;
38557;SDS011;24333;42.626;23.308;2022-08-04T20:03:13;3.97;;;3.22;;
38557;SDS011;24333;42.626;23.308;2022-08-04T20:05:40;5.60;;;3.53;;
38557;SDS011;24333;42.626;23.308;2022-08-04T20:08:09;10.20;;;3.95;;
38557;SDS011;24333;42.626;23.308;2022-08-04T20:10:37;4.72;;;3.72;;
38557;SDS011;24333;42.626;23.308;2022-08-04T20:13:04;5.53;;;3.47;;
38557;SDS011;24333;42.626;23.308;2022-08-04T20:15:30;8.20;;;3.90;;
38557;SDS011;24333;42.626;23.308;2022-08-04T20:17:58;3.75;;;3.30;;
38557;SDS011;24333;42.626;23.308;2022-08-04T20:20:24;3.78;;;3.08;;
38557;SDS011;24333;42.626;23.308;2022-08-04T20:22:50;4.90;;;3.08;;
38557;SDS011;24333;42.626;23.308;2022-08-04T20:25:16;4.93;;;3.53;;
38557;SDS011;24333;42.626;23.308;2022-08-04T20:27:42;5.80;;;3.40;;
38557;SDS011;24333;42.626;23.308;2022-08-04T20:30:08;4.75;;;3.78;;
38557;SDS011;24333;42.626;23.308;2022-08-04T20:32:35;3.88;;;3.05;;
38557;SDS011;24333;42.626;23.308;2022-08-04T20:35:02;5.00;;;3.50;;
38557;SDS011;24333;42.626;23.308;2022-08-04T20:37:28;4.53;;;3.05;;
38557;SDS011;24333;42.626;23.308;2022-08-04T20:39:55;4.80;;;3.30;;
38557;SDS011;24333;42.626;23.308;2022-08-04T20:42:23;4.13;;;3.20;;
38557;SDS011;24333;42.626;23.308;2022-08-04T20:44:50;4.53;;;3.28;;
38557;SDS011;24333;42.626;23.308;2022-08-04T20:47:16;5.20;;;2.92;;
38557;SDS011;24333;42.626;23.308;2022-08-04T20:49:44;6.32;;;2.83;;
38557;SDS011;24333;42.626;23.308;2022-08-04T20:52:10;7.05;;;3.25;;
38557;SDS011;24333;42.626;23.308;2022-08-04T20:54:37;6.82;;;3.20;;
38557;SDS011;24333;42.626;23.308;2022-08-04T20:57:06;8.05;;;3.40;;
38557;SDS011;24333;42.626;23.308;2022-08-04T20:59:33;6.35;;;3.08;;
38557;SDS011;24333;42.626;23.308;2022-08-04T21:02:00;5.90;;;2.78;;
38557;SDS011;24333;42.626;23.308;2022-08-04T21:04:27;5.13;;;3.05;;
38557;SDS011;24333;42.626;23.308;2022-08-04T21:06:56;3.58;;;2.90;;
38557;SDS011;24333;42.626;23.308;2022-08-04T21:09:24;3.92;;;3.03;;
38557;SDS011;24333;42.626;23.308;2022-08-04T21:11:51;5.57;;;2.95;;
38557;SDS011;24333;42.626;23.308;2022-08-04T21:14:19;4.40;;;2.63;;
38557;SDS011;24333;42.626;23.308;2022-08-04T21:16:45;5.07;;;3.20;;
38557;SDS011;24333;42.626;23.308;2022-08-04T21:19:11;7.50;;;3.22;;
38557;SDS011;24333;42.626;23.308;2022-08-04T21:21:38;4.82;;;3.25;;
38557;SDS011;24333;42.626;23.308;2022-08-04T21:24:04;8.27;;;3.15;;
38557;SDS011;24333;42.626;23.308;2022-08-04T21:26:31;7.05;;;3.58;;
38557;SDS011;24333;42.626;23.308;2022-08-04T21:28:58;6.35;;;4.05;;
38557;SDS011;24333;42.626;23.308;2022-08-04T22:00:02;4.38;;;3.13;;
38557;SDS011;24333;42.626;23.308;2022-08-04T22:02:45;6.35;;;3.20;;
38557;SDS011;24333;42.626;23.308;2022-08-04T22:05:25;6.53;;;2.97;;
38557;SDS011;24333;42.626;23.308;2022-08-04T22:07:51;4.30;;;3.28;;
38557;SDS011;24333;42.626;23.308;2022-08-04T22:10:29;6.07;;;2.95;;
38557;SDS011;24333;42.626;23.308;2022-08-04T22:12:56;5.57;;;3.80;;
38557;SDS011;24333;42.626;23.308;2022-08-04T22:15:25;4.47;;;3.30;;
38557;SDS011;24333;42.626;23.308;2022-08-04T22:17:51;4.35;;;3.15;;
38557;SDS011;24333;42.626;23.308;2022-08-04T22:20:18;8.20;;;3.08;;
38557;SDS011;24333;42.626;23.308;2022-08-04T23:01:36;5.07;;;3.50;;
38557;SDS011;24333;42.626;23.308;2022-08-04T23:04:03;3.95;;;3.28;;
38557;SDS011;24333;42.626;23.308;2022-08-04T23:06:29;5.35;;;3.22;;
38557;SDS011;24333;42.626;23.308;2022-08-04T23:08:55;8.80;;;3.90;;
38557;SDS011;24333;42.626;23.308;2022-08-04T23:11:21;3.80;;;3.35;;
38557;SDS011;24333;42.626;23.308;2022-08-04T23:29:18;6.57;;;3.15;;
38557;SDS011;24333;42.626;23.308;2022-08-04T23:31:43;4.78;;;4.25;;
38557;SDS011;24333;42.626;23.308;2022-08-04T23:34:09;4.13;;;3.15;;
38557;SDS011;24333;42.626;23.308;2022-08-04T23:36:35;6.28;;;3.08;;
38557;SDS011;24333;42.626;23.308;2022-08-04T23:39:02;6.88;;;3.50;;
38557;SDS011;24333;42.626;23.308;2022-08-04T23:41:28;4.43;;;3.15;;
38557;SDS011;24333;42.626;23.308;2022-08-04T23:59:38;5.35;;;3.70;;
